F/V Berriz Patxiku — ECES — position and weather

sailwx.info

Track history (hours):
 
Tides and Currents Weather Stations Pressure Air Temp Water Temp Dewpoint Dewpoint Depression Visibility Wind Speed Wind Dir Waves Ship Positions

F/V Berriz Patxiku

Last reported at 2017-Mar-28 12:33 UTC. Time now 2017-Mar-28 13:44 UTC.
Position N 43°18' W 002°12'.

Length 30 m.

Type: Fishing. MMSI: 224106260.

Date/timePositionNaut miles runAvg speedWind from/ knotsBaromVisibWave heightAir tempDewpointWater temp
2017-Mar-28 12:33N 43°18' W 002°12'0 0.0
2017-Mar-28 11:33N 43°18' W 002°12'0 0.0
2017-Mar-28 10:32N 43°18' W 002°12'12 1.2
2017-Mar-28 00:32N 43°23' W 001°57'2 0.5
2017-Mar-27 21:27N 43°23' W 001°59'0 0.3
2017-Mar-27 20:11N 43°23' W 001°59'1 0.8
2017-Mar-27 19:31N 43°22' W 001°58'1 1.0
2017-Mar-27 18:21N 43°23' W 001°59'  
2017-Mar-22 23:33N 43°21' W 001°57'1 0.6
2017-Mar-22 22:33N 43°21' W 001°58'0 0.5
2017-Mar-22 21:32N 43°21' W 001°59'1 0.6
2017-Mar-22 20:33N 43°21' W 001°59'14 1.0
2017-Mar-22 06:29N 43°34' W 001°53'8 8.8
2017-Mar-22 05:31N 43°41' W 001°46'43 8.6
2017-Mar-22 00:33N 44°23' W 001°32'6 5.7
2017-Mar-21 23:33N 44°27' W 001°27'6 5.8
2017-Mar-21 22:26N 44°21' W 001°29'65 3.9
2017-Mar-21 05:32N 43°21' W 002°04'3 2.9
2017-Mar-21 04:27N 43°21' W 001°60'  
Track history (hours):
 
Tides and Currents Weather Stations Pressure Air Temp Water Temp Dewpoint Dewpoint Depression Visibility Wind Speed Wind Dir Waves Ship Positions

F/V Berriz Patxiku

Last reported at 2017-Mar-28 12:33 UTC. Time now 2017-Mar-28 13:44 UTC.
Position N 43°18' W 002°12'.

Length 30 m.

Type: Fishing. MMSI: 224106260.

Date/timePositionNaut miles runAvg speedWind from/ knotsBaromVisibWave heightAir tempDewpointWater temp
2017-Mar-28 12:33N 43°18' W 002°12'0 0.0
2017-Mar-28 11:33N 43°18' W 002°12'0 0.0
2017-Mar-28 10:32N 43°18' W 002°12'12 1.2
2017-Mar-28 00:32N 43°23' W 001°57'2 0.5
2017-Mar-27 21:27N 43°23' W 001°59'0 0.3
2017-Mar-27 20:11N 43°23' W 001°59'1 0.8
2017-Mar-27 19:31N 43°22' W 001°58'1 1.0
2017-Mar-27 18:21N 43°23' W 001°59'  
2017-Mar-22 23:33N 43°21' W 001°57'1 0.6
2017-Mar-22 22:33N 43°21' W 001°58'0 0.5
2017-Mar-22 21:32N 43°21' W 001°59'1 0.6
2017-Mar-22 20:33N 43°21' W 001°59'14 1.0
2017-Mar-22 06:29N 43°34' W 001°53'8 8.8
2017-Mar-22 05:31N 43°41' W 001°46'43 8.6
2017-Mar-22 00:33N 44°23' W 001°32'6 5.7
2017-Mar-21 23:33N 44°27' W 001°27'6 5.8
2017-Mar-21 22:26N 44°21' W 001°29'65 3.9
2017-Mar-21 05:32N 43°21' W 002°04'3 2.9
2017-Mar-21 04:27N 43°21' W 001°60'  

Dump ship's entire track history